createdAt,value
2022-11-13T00:02:49.816Z,8.50
2022-11-13T00:08:10.175Z,8.48
2022-11-13T00:13:31.021Z,8.43
2022-11-13T00:18:51.146Z,8.40
2022-11-13T00:24:12.149Z,8.36
2022-11-13T00:29:32.306Z,8.30
2022-11-13T00:34:52.910Z,8.27
2022-11-13T00:40:13.199Z,8.23
2022-11-13T00:45:33.545Z,8.18
2022-11-13T00:50:54.103Z,8.17
2022-11-13T00:56:14.693Z,8.13
2022-11-13T01:01:35.085Z,8.04
2022-11-13T01:06:55.684Z,7.97
2022-11-13T01:12:15.784Z,7.89
2022-11-13T01:17:36.672Z,7.82
2022-11-13T01:22:56.951Z,7.74
2022-11-13T01:28:17.341Z,7.72
2022-11-13T01:33:37.923Z,7.67
2022-11-13T01:38:58.878Z,7.63
2022-11-13T01:44:20.326Z,7.57
2022-11-13T01:49:43.800Z,7.52
2022-11-13T01:55:17.169Z,7.43
2022-11-13T02:00:37.513Z,7.38
2022-11-13T02:05:58.036Z,7.33
2022-11-13T02:11:20.010Z,7.33
2022-11-13T02:16:43.070Z,7.31
2022-11-13T02:22:09.224Z,7.30
2022-11-13T02:27:36.192Z,7.30
2022-11-13T02:32:58.458Z,7.30
2022-11-13T02:38:18.748Z,7.30
2022-11-13T02:43:39.144Z,7.30
2022-11-13T02:48:59.543Z,7.24
2022-11-13T02:54:19.843Z,7.17
2022-11-13T02:59:40.406Z,7.15
2022-11-13T03:05:16.291Z,7.12
2022-11-13T03:10:36.849Z,7.09
2022-11-13T03:15:57.170Z,7.10
2022-11-13T03:21:17.141Z,7.13
2022-11-13T03:26:37.700Z,7.16
2022-11-13T03:31:58.280Z,7.19
2022-11-13T03:37:18.773Z,7.20
2022-11-13T03:42:38.960Z,7.20
2022-11-13T03:47:59.357Z,7.22
2022-11-13T03:53:19.712Z,7.23
2022-11-13T03:58:40.391Z,7.24
2022-11-13T04:04:00.678Z,7.26
2022-11-13T04:09:20.778Z,7.27
2022-11-13T04:14:41.050Z,7.29
2022-11-13T04:20:01.139Z,7.31
2022-11-13T04:25:21.479Z,7.32
2022-11-13T04:30:41.889Z,7.35
2022-11-13T04:36:02.339Z,7.38
2022-11-13T04:41:41.452Z,7.43
2022-11-13T04:47:04.885Z,7.47
2022-11-13T04:52:24.914Z,7.51
2022-11-13T04:57:45.219Z,7.53
2022-11-13T05:03:05.497Z,7.53
2022-11-13T05:08:26.096Z,7.47
2022-11-13T05:13:46.336Z,7.48
2022-11-13T05:19:07.150Z,7.53
2022-11-13T05:24:27.632Z,7.56
2022-11-13T05:29:47.583Z,7.57
2022-11-13T05:35:07.850Z,7.59
2022-11-13T05:40:29.144Z,7.59
2022-11-13T05:45:49.160Z,7.58
2022-11-13T05:51:10.781Z,7.57
2022-11-13T05:56:34.148Z,7.52
2022-11-13T06:01:54.370Z,7.50
2022-11-13T06:07:14.596Z,7.49
2022-11-13T06:12:34.928Z,7.47
2022-11-13T06:17:54.896Z,7.45
2022-11-13T06:23:14.899Z,7.42
2022-11-13T06:28:36.265Z,7.41
2022-11-13T06:33:59.012Z,7.40
2022-11-13T06:39:19.258Z,7.39
2022-11-13T06:44:39.631Z,7.33
2022-11-13T06:49:59.536Z,7.32
2022-11-13T06:55:19.536Z,7.36
2022-11-13T07:00:40.975Z,7.38
2022-11-13T07:06:04.078Z,7.40
2022-11-13T07:11:24.213Z,7.44
2022-11-13T07:17:08.102Z,7.52
2022-11-13T07:22:24.518Z,7.58
2022-11-13T07:27:45.659Z,7.65
2022-11-13T07:33:05.918Z,7.71
2022-11-13T07:38:26.649Z,7.78
2022-11-13T07:43:47.405Z,7.85
2022-11-13T07:49:07.521Z,7.95
2022-11-13T07:54:27.835Z,8.03
2022-11-13T07:59:48.080Z,8.14
2022-11-13T08:05:08.697Z,8.21
2022-11-13T08:10:30.112Z,8.29
2022-11-13T08:15:50.555Z,8.36
2022-11-13T08:21:14.917Z,8.46
2022-11-13T08:26:37.983Z,8.51
2022-11-13T08:31:58.650Z,8.61
2022-11-13T08:37:18.887Z,8.73
2022-11-13T08:42:39.078Z,8.88
2022-11-13T08:48:01.303Z,9.00
2022-11-13T08:53:22.943Z,9.14
2022-11-13T08:58:42.988Z,9.27
2022-11-13T09:04:03.728Z,9.40
2022-11-13T09:09:23.999Z,9.52
2022-11-13T09:14:44.470Z,9.62
2022-11-13T09:20:12.645Z,9.73
2022-11-13T09:25:37.793Z,9.86
2022-11-13T09:30:58.227Z,9.95
2022-11-13T09:36:18.642Z,10.06
2022-11-13T09:41:44.767Z,10.17
2022-11-13T09:47:14.226Z,10.30
2022-11-13T09:52:40.656Z,10.40
2022-11-13T09:58:11.328Z,10.52
2022-11-13T10:04:01.391Z,10.65
2022-11-13T10:09:41.495Z,10.79
2022-11-13T10:15:12.908Z,10.91
2022-11-13T10:20:38.680Z,11.01
2022-11-13T10:26:16.010Z,11.18
2022-11-13T10:31:49.272Z,11.34
2022-11-13T10:37:43.031Z,11.49
2022-11-13T10:43:26.892Z,11.63
2022-11-13T10:48:49.576Z,11.78
2022-11-13T10:54:35.937Z,11.92
2022-11-13T10:59:59.423Z,12.07
2022-11-13T11:05:26.481Z,12.19
2022-11-13T11:11:39.613Z,12.33
2022-11-13T11:17:07.200Z,12.47
2022-11-13T11:22:35.968Z,12.62
2022-11-13T11:28:14.615Z,12.76
2022-11-13T11:34:00.847Z,12.92
2022-11-13T11:39:51.530Z,13.06
2022-11-13T11:45:43.389Z,13.21
2022-11-13T11:51:35.051Z,13.33
2022-11-13T11:57:00.308Z,13.43
2022-11-13T12:02:38.994Z,13.55
2022-11-13T12:08:01.877Z,13.60
2022-11-13T12:13:49.322Z,13.71
2022-11-13T12:19:28.665Z,13.81
2022-11-13T12:25:13.964Z,13.91
2022-11-13T12:30:41.807Z,13.99
2022-11-13T12:36:20.769Z,14.08
2022-11-13T12:41:49.268Z,14.18
2022-11-13T12:47:09.948Z,14.26
2022-11-13T12:52:30.122Z,14.35
2022-11-13T12:57:55.816Z,14.42
2022-11-13T13:03:49.707Z,14.47
2022-11-13T13:09:37.170Z,14.54
2022-11-13T13:15:09.555Z,14.60
2022-11-13T13:20:44.893Z,14.65
2022-11-13T13:26:09.040Z,14.69
2022-11-13T13:31:41.796Z,14.74
2022-11-13T13:37:30.995Z,14.76
2022-11-13T13:43:11.294Z,14.80
2022-11-13T13:48:32.227Z,14.86
2022-11-13T13:53:55.097Z,14.93
2022-11-13T13:59:21.007Z,15.01
2022-11-13T14:04:47.738Z,15.04
2022-11-13T14:10:20.251Z,15.08
2022-11-13T14:15:41.887Z,15.11
2022-11-13T14:21:22.215Z,15.14
2022-11-13T14:26:42.578Z,15.15
2022-11-13T14:32:18.546Z,15.16
2022-11-13T14:37:52.158Z,15.16
2022-11-13T14:43:32.791Z,15.15
2022-11-13T14:48:56.485Z,15.12
2022-11-13T14:54:53.151Z,15.11
2022-11-13T15:00:15.746Z,15.04
2022-11-13T15:05:38.055Z,14.99
2022-11-13T15:10:59.665Z,14.90
2022-11-13T15:16:31.867Z,14.80
2022-11-13T15:22:25.084Z,14.63
2022-11-13T15:27:42.861Z,14.41
2022-11-13T15:33:12.212Z,14.19
2022-11-13T15:38:36.004Z,13.96
2022-11-13T15:44:02.886Z,13.77
2022-11-13T15:49:27.804Z,13.56
2022-11-13T15:54:59.711Z,13.37
2022-11-13T16:00:25.149Z,13.18
2022-11-13T16:05:46.059Z,12.91
2022-11-13T16:11:18.793Z,12.62
2022-11-13T16:16:43.503Z,12.38
2022-11-13T16:22:32.798Z,12.23
2022-11-13T16:28:04.500Z,12.08
2022-11-13T16:33:27.572Z,11.83
2022-11-13T16:38:48.911Z,11.66
2022-11-13T16:44:13.962Z,11.54
2022-11-13T16:49:36.620Z,11.42
2022-11-13T16:55:03.598Z,11.25
2022-11-13T17:00:31.020Z,11.07
2022-11-13T17:05:53.230Z,10.98
2022-11-13T17:11:15.932Z,10.93
2022-11-13T17:16:39.404Z,10.82
2022-11-13T17:22:06.632Z,10.75
2022-11-13T17:27:29.469Z,10.69
2022-11-13T17:32:49.373Z,10.61
2022-11-13T17:38:13.721Z,10.60
2022-11-13T17:43:42.687Z,10.58
2022-11-13T17:49:07.016Z,10.54
2022-11-13T17:54:37.161Z,10.51
2022-11-13T17:59:59.806Z,10.44
2022-11-13T18:05:22.730Z,10.38
2022-11-13T18:10:45.706Z,10.30
2022-11-13T18:16:15.903Z,10.23
2022-11-13T18:21:41.998Z,10.15
2022-11-13T18:27:03.759Z,10.05
2022-11-13T18:32:23.819Z,9.96
2022-11-13T18:37:54.118Z,9.91
2022-11-13T18:43:21.549Z,9.85
2022-11-13T18:48:43.197Z,9.83
2022-11-13T18:54:09.944Z,9.84
2022-11-13T18:59:30.788Z,9.83
2022-11-13T19:04:53.413Z,9.80
2022-11-13T19:10:16.031Z,9.80
2022-11-13T19:15:39.210Z,9.79
2022-11-13T19:21:13.619Z,9.76
2022-11-13T19:26:47.722Z,9.73
2022-11-13T19:32:10.224Z,9.69
2022-11-13T19:37:31.245Z,9.64
2022-11-13T19:43:02.151Z,9.63
2022-11-13T19:48:26.873Z,9.60
2022-11-13T19:54:00.551Z,9.58
2022-11-13T19:59:23.115Z,9.57
2022-11-13T20:04:43.208Z,9.52
2022-11-13T20:10:09.688Z,9.53
2022-11-13T20:15:35.344Z,9.50
2022-11-13T20:20:59.271Z,9.47
2022-11-13T20:26:27.564Z,9.47
2022-11-13T20:31:51.974Z,9.46
2022-11-13T20:37:14.737Z,9.42
2022-11-13T20:42:40.243Z,9.39
2022-11-13T20:48:26.050Z,9.35
2022-11-13T20:53:52.085Z,9.34
2022-11-13T20:59:12.366Z,9.31
2022-11-13T21:04:38.141Z,9.29
2022-11-13T21:10:03.215Z,9.27
2022-11-13T21:15:26.077Z,9.24
2022-11-13T21:20:51.860Z,9.21
2022-11-13T21:26:19.827Z,9.18
2022-11-13T21:31:40.276Z,9.16
2022-11-13T21:37:04.900Z,9.15
2022-11-13T21:42:27.265Z,9.13
2022-11-13T21:47:50.707Z,9.11
2022-11-13T21:53:12.190Z,9.10
2022-11-13T21:58:38.662Z,9.07
2022-11-13T22:04:08.933Z,9.04
2022-11-13T22:09:40.518Z,9.02
2022-11-13T22:15:00.800Z,8.98
2022-11-13T22:20:23.934Z,8.94
2022-11-13T22:25:47.016Z,8.93
2022-11-13T22:31:19.496Z,8.92
2022-11-13T22:36:41.835Z,8.90
2022-11-13T22:42:02.016Z,8.90
2022-11-13T22:47:27.137Z,8.90
2022-11-13T22:52:51.572Z,8.88
2022-11-13T22:58:14.657Z,8.88
2022-11-13T23:03:45.646Z,8.86
2022-11-13T23:09:09.548Z,8.84
2022-11-13T23:14:39.732Z,8.83
2022-11-13T23:20:00.052Z,8.80
2022-11-13T23:25:25.355Z,8.79
2022-11-13T23:30:54.717Z,8.75
2022-11-13T23:36:17.897Z,8.72
2022-11-13T23:41:45.556Z,8.69
2022-11-13T23:47:08.078Z,8.68
2022-11-13T23:52:30.630Z,8.66
2022-11-13T23:58:02.967Z,8.64
